createdAt,value
2023-04-29T00:00:08.791Z,29.38
2023-04-29T00:05:05.806Z,28.63
2023-04-29T00:10:02.421Z,29.98
2023-04-29T00:14:59.707Z,33.22
2023-04-29T00:19:56.116Z,35.80
2023-04-29T00:24:53.182Z,33.45
2023-04-29T00:29:49.592Z,35.40
2023-04-29T00:34:46.173Z,35.70
2023-04-29T00:39:42.560Z,40.28
2023-04-29T00:44:38.941Z,36.83
2023-04-29T00:49:35.447Z,42.83
2023-04-29T00:54:32.070Z,42.30
2023-04-29T00:59:32.203Z,40.13
2023-04-29T01:04:28.771Z,47.08
2023-04-29T01:10:00.456Z,45.55
2023-04-29T01:15:12.572Z,58.92
2023-04-29T01:20:10.346Z,62.78
2023-04-29T01:25:07.260Z,62.70
2023-04-29T01:30:12.606Z,66.45
2023-04-29T01:35:25.075Z,65.15
2023-04-29T01:40:34.047Z,67.22
2023-04-29T01:45:34.032Z,73.03
2023-04-29T01:50:30.418Z,64.32
2023-04-29T01:55:26.855Z,70.63
2023-04-29T02:00:23.277Z,71.85
2023-04-29T02:05:19.665Z,66.13
2023-04-29T02:10:16.329Z,72.40
2023-04-29T02:15:12.715Z,80.82
2023-04-29T02:20:10.775Z,77.78
2023-04-29T02:25:07.529Z,82.40
2023-04-29T02:30:04.887Z,78.60
2023-04-29T02:35:01.303Z,78.78
2023-04-29T02:39:57.684Z,64.82
2023-04-29T02:44:54.058Z,59.10
2023-04-29T02:49:50.679Z,62.03
2023-04-29T02:54:47.354Z,66.13
2023-04-29T02:59:44.327Z,68.95
2023-04-29T03:04:40.870Z,72.13
2023-04-29T03:09:37.275Z,75.50
2023-04-29T03:14:33.670Z,71.82
2023-04-29T03:19:30.180Z,82.60
2023-04-29T03:24:27.183Z,78.80
2023-04-29T03:29:23.617Z,80.72
2023-04-29T03:34:20.748Z,78.95
2023-04-29T03:39:18.045Z,80.22
2023-04-29T03:44:14.665Z,75.97
2023-04-29T03:49:11.042Z,70.15
2023-04-29T03:54:08.404Z,72.32
2023-04-29T03:59:04.820Z,79.15
2023-04-29T04:04:01.677Z,81.70
2023-04-29T04:08:58.400Z,88.35
2023-04-29T04:13:54.968Z,101.25
2023-04-29T04:18:51.341Z,90.45
2023-04-29T04:23:47.740Z,90.93
2023-04-29T04:28:44.120Z,88.68
2023-04-29T04:33:43.474Z,87.90
2023-04-29T04:38:39.920Z,94.88
2023-04-29T04:43:36.345Z,95.18
2023-04-29T04:48:32.726Z,88.55
2023-04-29T04:53:29.139Z,106.07
2023-04-29T04:58:26.666Z,97.70
2023-04-29T05:03:23.260Z,114.88
2023-04-29T05:08:20.320Z,120.38
2023-04-29T05:13:16.753Z,106.00
2023-04-29T05:18:13.271Z,105.90
2023-04-29T05:23:10.164Z,96.00
2023-04-29T05:28:07.688Z,89.65
2023-04-29T05:33:04.110Z,101.82
2023-04-29T05:38:00.657Z,84.90
2023-04-29T05:42:57.026Z,79.55
2023-04-29T05:47:53.452Z,84.43
2023-04-29T05:52:49.997Z,66.80
2023-04-29T05:57:46.462Z,71.00
2023-04-29T06:02:51.005Z,72.20
2023-04-29T06:07:51.962Z,61.28
2023-04-29T06:12:51.535Z,63.08
2023-04-29T06:17:48.746Z,62.17
2023-04-29T06:22:45.235Z,61.40
2023-04-29T06:27:41.731Z,62.83
2023-04-29T06:32:39.370Z,62.45
2023-04-29T06:37:37.721Z,64.13
2023-04-29T06:42:34.703Z,60.50
2023-04-29T06:47:31.231Z,57.53
2023-04-29T06:52:27.701Z,56.30
2023-04-29T06:57:24.210Z,63.58
2023-04-29T07:02:20.749Z,58.08
2023-04-29T07:07:17.211Z,59.55
2023-04-29T07:12:13.650Z,56.85
2023-04-29T07:17:12.047Z,60.60
2023-04-29T07:22:10.376Z,55.00
2023-04-29T07:27:06.959Z,56.20
2023-04-29T07:32:03.821Z,51.88
2023-04-29T07:37:01.233Z,51.83
2023-04-29T07:41:57.815Z,48.95
2023-04-29T07:46:54.310Z,47.90
2023-04-29T07:51:50.772Z,42.85
2023-04-29T07:56:47.369Z,42.65
2023-04-29T08:01:44.215Z,37.17
2023-04-29T08:06:41.786Z,38.53
2023-04-29T08:11:39.947Z,36.97
2023-04-29T08:16:36.544Z,35.25
2023-04-29T08:21:33.582Z,33.42
2023-04-29T08:26:30.439Z,32.72
2023-04-29T08:31:27.504Z,34.83
2023-04-29T08:36:24.213Z,34.90
2023-04-29T08:41:20.647Z,34.72
2023-04-29T08:46:18.516Z,35.33
2023-04-29T08:51:15.096Z,33.08
2023-04-29T08:56:23.158Z,31.42
2023-04-29T09:01:20.645Z,34.33
2023-04-29T09:06:17.846Z,32.83
2023-04-29T09:11:14.650Z,27.80
2023-04-29T09:16:12.774Z,26.42
2023-04-29T09:21:22.017Z,36.25
2023-04-29T09:26:19.957Z,29.45
2023-04-29T09:31:28.067Z,24.90
2023-04-29T09:36:47.766Z,24.02
2023-04-29T09:41:53.083Z,26.30
2023-04-29T09:47:09.399Z,20.83
2023-04-29T09:52:11.078Z,19.75
2023-04-29T09:57:09.358Z,21.00
2023-04-29T10:02:17.791Z,22.35
2023-04-29T10:07:20.095Z,20.33
2023-04-29T10:12:18.921Z,18.45
2023-04-29T10:17:26.256Z,15.25
2023-04-29T10:22:33.683Z,17.05
2023-04-29T10:27:34.199Z,16.27
2023-04-29T10:32:39.945Z,17.67
2023-04-29T10:37:48.552Z,15.88
2023-04-29T10:42:45.855Z,16.48
2023-04-29T10:47:42.542Z,15.07
2023-04-29T10:52:52.498Z,18.15
2023-04-29T10:57:49.308Z,15.20
2023-04-29T11:02:45.814Z,17.23
2023-04-29T11:07:44.391Z,21.70
2023-04-29T11:12:40.992Z,14.90
2023-04-29T11:17:38.468Z,18.50
2023-04-29T11:22:35.381Z,17.70
2023-04-29T11:27:36.345Z,14.88
2023-04-29T11:32:35.349Z,16.95
2023-04-29T11:37:32.724Z,22.35
2023-04-29T11:42:29.425Z,14.30
2023-04-29T11:47:27.513Z,17.10
2023-04-29T11:52:23.934Z,17.23
2023-04-29T11:57:20.371Z,14.75
2023-04-29T12:02:17.051Z,13.95
2023-04-29T12:07:17.449Z,13.13
2023-04-29T12:12:14.800Z,13.27
2023-04-29T12:17:11.938Z,14.00
2023-04-29T12:22:08.512Z,13.43
2023-04-29T12:27:08.549Z,10.75
2023-04-29T12:32:05.124Z,13.57
2023-04-29T12:37:02.087Z,14.25
2023-04-29T12:41:59.488Z,14.70
2023-04-29T12:46:58.382Z,11.47
2023-04-29T12:51:55.179Z,10.27
2023-04-29T12:56:52.201Z,13.65
2023-04-29T13:01:48.844Z,11.80
2023-04-29T13:06:45.392Z,13.52
2023-04-29T13:11:42.247Z,12.95
2023-04-29T13:16:38.825Z,12.05
2023-04-29T13:21:35.320Z,12.70
2023-04-29T13:26:32.242Z,12.15
2023-04-29T13:31:29.053Z,13.38
2023-04-29T13:36:28.588Z,11.90
2023-04-29T13:41:26.521Z,11.68
2023-04-29T13:46:23.058Z,9.48
2023-04-29T14:02:00.468Z,8.07
2023-04-29T14:06:35.230Z,9.45
2023-04-29T14:11:36.395Z,10.50
2023-04-29T14:16:33.282Z,7.68
2023-04-29T14:21:30.054Z,11.50
2023-04-29T14:26:28.380Z,9.00
2023-04-29T14:31:38.440Z,10.00
2023-04-29T14:36:35.043Z,12.13
2023-04-29T14:41:31.556Z,8.13
2023-04-29T14:46:29.110Z,8.57
2023-04-29T14:51:25.730Z,7.20
2023-04-29T14:56:22.305Z,8.43
2023-04-29T15:01:18.770Z,10.00
2023-04-29T15:06:15.408Z,6.13
2023-04-29T15:11:11.818Z,4.05
2023-04-29T15:16:08.890Z,5.43
2023-04-29T15:21:05.555Z,5.63
2023-04-29T15:26:02.045Z,4.18
2023-04-29T15:30:59.915Z,4.57
2023-04-29T15:35:56.889Z,10.60
2023-04-29T15:40:59.164Z,4.85
2023-04-29T15:45:56.110Z,4.47
2023-04-29T15:50:53.544Z,5.28
2023-04-29T15:55:50.190Z,3.67
2023-04-29T16:00:47.213Z,4.68
2023-04-29T16:05:43.682Z,6.43
2023-04-29T16:10:40.197Z,5.18
2023-04-29T16:15:36.750Z,4.95
2023-04-29T16:20:33.383Z,6.43
2023-04-29T16:25:29.771Z,6.72
2023-04-29T16:30:26.157Z,7.50
2023-04-29T16:35:26.312Z,7.20
2023-04-29T16:40:24.052Z,6.68
2023-04-29T16:45:23.630Z,6.40
2023-04-29T16:50:20.420Z,10.55
2023-04-29T16:55:16.957Z,5.05
2023-04-29T17:00:13.965Z,4.03
2023-04-29T17:05:10.922Z,10.25
2023-04-29T17:10:08.253Z,8.52
2023-04-29T17:15:05.961Z,4.95
2023-04-29T17:20:02.526Z,7.90
2023-04-29T17:24:58.992Z,6.60
2023-04-29T17:29:55.866Z,5.50
2023-04-29T17:34:53.296Z,6.32
2023-04-29T17:39:49.770Z,4.10
2023-04-29T17:44:46.614Z,5.20
2023-04-29T17:49:43.816Z,4.63
2023-04-29T17:54:41.146Z,7.30
2023-04-29T17:59:37.534Z,7.67
2023-04-29T18:04:34.022Z,7.10
2023-04-29T18:09:30.558Z,5.18
2023-04-29T18:14:29.055Z,10.07
2023-04-29T18:19:25.792Z,5.40
2023-04-29T18:24:22.526Z,9.10
2023-04-29T18:29:18.930Z,4.70
2023-04-29T18:34:15.865Z,4.97
2023-04-29T18:39:12.288Z,7.10
2023-04-29T18:44:08.772Z,8.30
2023-04-29T18:49:05.201Z,12.63
2023-04-29T18:54:01.616Z,8.15
2023-04-29T18:58:58.064Z,7.55
2023-04-29T19:03:55.318Z,9.02
2023-04-29T19:08:51.735Z,9.48
2023-04-29T19:13:48.136Z,6.75
2023-04-29T19:18:45.518Z,6.32
2023-04-29T19:23:42.153Z,10.43
2023-04-29T19:28:38.594Z,6.55
2023-04-29T19:33:35.279Z,13.07
2023-04-29T19:38:31.699Z,11.30
2023-04-29T19:43:28.475Z,8.38
2023-04-29T19:48:25.010Z,9.32
2023-04-29T19:53:21.602Z,6.90
2023-04-29T19:58:18.214Z,5.78
2023-04-29T20:03:14.764Z,8.73
2023-04-29T20:08:11.227Z,5.90
2023-04-29T20:13:07.889Z,5.07
2023-04-29T20:18:04.472Z,6.00
2023-04-29T20:23:01.013Z,9.15
2023-04-29T20:27:57.594Z,6.35
2023-04-29T20:32:54.447Z,6.70
2023-04-29T20:37:51.276Z,7.38
2023-04-29T20:42:47.837Z,7.05
2023-04-29T20:47:44.469Z,8.65
2023-04-29T20:52:41.681Z,6.10
2023-04-29T20:57:38.572Z,7.07
2023-04-29T21:02:35.054Z,5.30
2023-04-29T21:07:31.497Z,6.75
2023-04-29T21:12:27.952Z,7.15
2023-04-29T21:17:24.395Z,11.63
2023-04-29T21:22:20.828Z,11.07
2023-04-29T21:27:17.399Z,10.00
2023-04-29T21:32:14.723Z,10.05
2023-04-29T21:37:11.115Z,6.28
2023-04-29T21:42:09.666Z,8.45
2023-04-29T21:52:03.848Z,12.13
2023-04-29T21:57:00.566Z,10.20
2023-04-29T22:02:00.607Z,7.93
2023-04-29T22:06:57.314Z,7.20
2023-04-29T22:11:53.760Z,4.30
2023-04-29T22:16:50.227Z,6.10
2023-04-29T22:21:46.805Z,6.57
2023-04-29T22:26:43.349Z,6.88
2023-04-29T22:31:39.845Z,7.32
2023-04-29T22:36:36.583Z,6.90
2023-04-29T22:41:33.091Z,5.15
2023-04-29T22:46:29.498Z,4.30
2023-04-29T22:51:26.678Z,9.65
2023-04-29T22:56:24.592Z,10.40
2023-04-29T23:01:21.347Z,5.45
2023-04-29T23:06:17.820Z,9.35
2023-04-29T23:11:14.711Z,7.28
2023-04-29T23:16:11.473Z,8.75
2023-04-29T23:21:07.930Z,6.10
2023-04-29T23:26:04.392Z,10.00
2023-04-29T23:31:00.914Z,6.00
2023-04-29T23:35:57.345Z,4.57
2023-04-29T23:40:53.755Z,11.38
2023-04-29T23:45:50.227Z,6.80
2023-04-29T23:50:47.363Z,6.63
2023-04-29T23:55:43.724Z,6.50
